createdAt,value
2023-02-19T00:02:08.051Z,1.42
2023-02-19T00:04:34.792Z,1.77
2023-02-19T00:07:01.607Z,1.45
2023-02-19T00:09:28.464Z,1.50
2023-02-19T00:11:55.192Z,1.38
2023-02-19T00:14:21.966Z,1.80
2023-02-19T00:16:49.553Z,1.67
2023-02-19T00:19:20.336Z,1.42
2023-02-19T00:21:48.024Z,1.23
2023-02-19T00:24:15.577Z,1.40
2023-02-19T00:26:44.194Z,1.40
2023-02-19T00:29:21.280Z,1.50
2023-02-19T00:31:48.729Z,1.70
2023-02-19T00:34:15.832Z,1.40
2023-02-19T00:36:44.288Z,1.50
2023-02-19T00:39:15.991Z,1.58
2023-02-19T00:41:43.508Z,1.60
2023-02-19T00:44:12.224Z,1.60
2023-02-19T00:46:46.074Z,1.48
2023-02-19T00:49:23.825Z,1.50
2023-02-19T00:51:52.632Z,1.30
2023-02-19T00:54:20.478Z,2.17
2023-02-19T00:56:47.441Z,2.20
2023-02-19T00:59:14.877Z,2.10
2023-02-19T01:01:42.601Z,1.60
2023-02-19T01:04:09.397Z,2.00
2023-02-19T01:06:36.689Z,1.77
2023-02-19T01:09:05.528Z,1.90
2023-02-19T01:11:32.301Z,2.70
2023-02-19T01:14:01.043Z,2.03
2023-02-19T01:16:28.198Z,2.03
2023-02-19T01:18:56.383Z,2.03
2023-02-19T01:21:25.868Z,2.40
2023-02-19T01:23:53.733Z,2.40
2023-02-19T01:26:25.308Z,2.25
2023-02-19T01:28:52.819Z,2.08
2023-02-19T01:31:24.119Z,2.17
2023-02-19T01:33:55.575Z,2.10
2023-02-19T01:36:22.906Z,2.40
2023-02-19T01:38:49.930Z,2.25
2023-02-19T01:41:22.809Z,2.33
2023-02-19T01:44:25.290Z,2.00
2023-02-19T01:46:53.202Z,2.38
2023-02-19T01:49:48.973Z,1.90
2023-02-19T01:52:26.740Z,2.05
2023-02-19T01:54:54.790Z,2.00
2023-02-19T01:57:27.812Z,1.92
2023-02-19T02:00:01.707Z,2.27
2023-02-19T02:02:28.589Z,2.30
2023-02-19T02:04:58.297Z,1.90
2023-02-19T02:07:44.747Z,1.83
2023-02-19T02:10:21.110Z,2.00
2023-02-19T02:12:58.841Z,2.22
2023-02-19T02:15:44.711Z,2.55
2023-02-19T02:18:30.915Z,2.72
2023-02-19T02:21:44.511Z,2.47
2023-02-19T02:25:00.933Z,2.47
2023-02-19T02:28:04.027Z,2.60
2023-02-19T02:30:47.046Z,2.78
2023-02-19T02:33:37.451Z,3.08
2023-02-19T02:36:16.640Z,3.20
2023-02-19T02:38:46.580Z,2.90
2023-02-19T02:41:15.819Z,3.80
2023-02-19T02:43:43.732Z,3.45
2023-02-19T02:46:20.072Z,3.38
2023-02-19T02:48:55.399Z,3.13
2023-02-19T02:51:33.932Z,2.72
2023-02-19T02:54:29.587Z,3.17
2023-02-19T02:56:58.787Z,3.05
2023-02-19T02:59:31.365Z,2.90
2023-02-19T03:02:14.472Z,2.60
2023-02-19T03:05:32.491Z,2.85
2023-02-19T03:08:36.607Z,2.88
2023-02-19T03:11:29.770Z,2.78
2023-02-19T03:14:29.670Z,2.28
2023-02-19T03:17:31.923Z,2.70
2023-02-19T03:20:03.523Z,3.20
2023-02-19T03:22:36.271Z,2.20
2023-02-19T03:25:40.706Z,3.10
2023-02-19T03:28:12.523Z,2.97
2023-02-19T03:30:47.145Z,3.10
2023-02-19T03:33:23.969Z,3.45
2023-02-19T03:36:00.720Z,3.92
2023-02-19T03:38:40.719Z,3.33
2023-02-19T03:41:25.826Z,3.47
2023-02-19T03:44:03.061Z,2.88
2023-02-19T03:46:45.605Z,3.28
2023-02-19T03:49:47.919Z,2.70
2023-02-19T03:52:21.670Z,2.70
2023-02-19T03:54:58.779Z,2.63
2023-02-19T03:57:43.014Z,2.08
2023-02-19T04:03:32.250Z,1.73
2023-02-19T04:06:26.090Z,1.90
2023-02-19T04:08:58.701Z,1.60
2023-02-19T04:11:28.874Z,2.00
2023-02-19T04:14:06.508Z,1.92
2023-02-19T04:16:37.658Z,2.03
2023-02-19T04:19:19.339Z,1.75
2023-02-19T04:21:49.576Z,2.22
2023-02-19T04:24:51.970Z,2.25
2023-02-19T04:27:19.474Z,1.83
2023-02-19T04:29:46.618Z,1.98
2023-02-19T04:32:14.178Z,2.08
2023-02-19T04:34:41.103Z,1.85
2023-02-19T04:37:08.248Z,2.22
2023-02-19T04:39:35.322Z,2.17
2023-02-19T04:42:02.227Z,2.28
2023-02-19T04:44:29.026Z,1.70
2023-02-19T04:46:55.968Z,1.27
2023-02-19T04:49:23.289Z,2.10
2023-02-19T04:51:50.291Z,1.77
2023-02-19T04:54:17.000Z,1.55
2023-02-19T04:56:43.750Z,1.48
2023-02-19T04:59:10.648Z,1.45
2023-02-19T05:01:37.852Z,1.35
2023-02-19T05:04:05.309Z,1.75
2023-02-19T05:06:32.101Z,1.98
2023-02-19T05:08:59.056Z,1.88
2023-02-19T05:11:25.823Z,1.65
2023-02-19T05:13:52.588Z,2.00
2023-02-19T05:16:19.312Z,1.80
2023-02-19T05:18:47.274Z,2.05
2023-02-19T05:21:15.215Z,1.80
2023-02-19T05:23:42.449Z,1.85
2023-02-19T05:26:17.978Z,1.90
2023-02-19T05:28:47.160Z,1.60
2023-02-19T05:31:14.659Z,1.77
2023-02-19T05:33:43.040Z,1.92
2023-02-19T05:36:13.589Z,1.70
2023-02-19T05:38:41.841Z,2.63
2023-02-19T05:41:18.256Z,2.22
2023-02-19T05:43:48.168Z,2.00
2023-02-19T05:46:19.768Z,1.80
2023-02-19T05:48:48.554Z,1.90
2023-02-19T05:51:19.190Z,1.73
2023-02-19T05:53:47.697Z,1.88
2023-02-19T05:56:26.271Z,1.73
2023-02-19T05:58:55.773Z,1.80
2023-02-19T06:01:27.476Z,1.70
2023-02-19T06:03:57.383Z,1.65
2023-02-19T06:06:25.240Z,2.30
2023-02-19T06:08:52.194Z,2.10
2023-02-19T06:11:19.278Z,2.10
2023-02-19T06:13:46.744Z,1.23
2023-02-19T06:16:13.671Z,1.73
2023-02-19T06:18:41.231Z,1.90
2023-02-19T06:21:11.999Z,1.70
2023-02-19T06:23:39.887Z,1.70
2023-02-19T06:26:22.584Z,1.83
2023-02-19T06:28:51.593Z,1.48
2023-02-19T06:31:20.663Z,1.70
2023-02-19T06:33:47.974Z,1.50
2023-02-19T06:36:18.423Z,2.00
2023-02-19T06:38:45.496Z,1.55
2023-02-19T06:41:13.516Z,1.52
2023-02-19T06:43:40.955Z,1.42
2023-02-19T06:46:08.892Z,1.70
2023-02-19T06:48:35.912Z,1.58
2023-02-19T06:51:03.352Z,1.35
2023-02-19T06:53:30.302Z,2.13
2023-02-19T06:55:59.820Z,1.30
2023-02-19T06:58:27.492Z,1.20
2023-02-19T07:00:55.079Z,2.25
2023-02-19T07:03:22.206Z,1.65
2023-02-19T07:05:49.263Z,1.50
2023-02-19T07:08:17.351Z,2.00
2023-02-19T07:10:45.508Z,1.73
2023-02-19T07:13:12.476Z,1.70
2023-02-19T07:15:39.229Z,2.20
2023-02-19T07:18:10.192Z,2.05
2023-02-19T07:20:37.164Z,1.77
2023-02-19T07:23:04.020Z,1.70
2023-02-19T07:25:30.829Z,1.90
2023-02-19T07:27:57.560Z,1.30
2023-02-19T07:30:24.397Z,1.70
2023-02-19T07:32:51.166Z,1.60
2023-02-19T07:35:17.877Z,1.67
2023-02-19T07:37:44.775Z,2.25
2023-02-19T07:40:11.616Z,1.60
2023-02-19T07:42:38.768Z,1.48
2023-02-19T07:45:05.802Z,1.73
2023-02-19T07:47:32.545Z,1.95
2023-02-19T07:49:59.395Z,1.90
2023-02-19T07:52:26.135Z,2.85
2023-02-19T07:54:52.906Z,1.83
2023-02-19T07:57:19.716Z,2.00
2023-02-19T07:59:46.430Z,1.70
2023-02-19T08:02:37.346Z,2.30
2023-02-19T08:05:06.669Z,1.80
2023-02-19T08:07:35.165Z,2.00
2023-02-19T08:10:22.367Z,1.67
2023-02-19T08:13:18.619Z,2.10
2023-02-19T08:16:18.268Z,2.00
2023-02-19T08:18:49.206Z,2.00
2023-02-19T08:21:18.227Z,1.52
2023-02-19T08:23:46.261Z,2.15
2023-02-19T08:26:13.336Z,1.63
2023-02-19T08:28:40.551Z,1.73
2023-02-19T08:31:10.844Z,1.70
2023-02-19T08:33:39.286Z,1.90
2023-02-19T08:36:09.118Z,1.80
2023-02-19T08:38:36.808Z,1.70
2023-02-19T08:41:09.136Z,1.90
2023-02-19T08:43:36.626Z,2.00
2023-02-19T08:46:04.583Z,1.92
2023-02-19T08:48:31.319Z,2.00
2023-02-19T08:51:04.329Z,1.73
2023-02-19T08:53:32.962Z,1.70
2023-02-19T08:56:08.145Z,1.30
2023-02-19T08:58:36.073Z,2.03
2023-02-19T09:01:03.918Z,1.45
2023-02-19T09:03:30.736Z,1.90
2023-02-19T09:05:57.525Z,1.95
2023-02-19T09:08:24.800Z,1.77
2023-02-19T09:11:03.580Z,1.75
2023-02-19T09:13:30.781Z,1.83
2023-02-19T09:15:57.641Z,1.90
2023-02-19T09:18:25.976Z,1.80
2023-02-19T09:20:53.201Z,1.70
2023-02-19T09:23:19.923Z,1.90
2023-02-19T09:25:46.862Z,1.88
2023-02-19T09:28:13.651Z,1.60
2023-02-19T09:30:40.433Z,1.55
2023-02-19T09:33:07.228Z,1.70
2023-02-19T09:35:34.453Z,1.67
2023-02-19T09:38:02.087Z,1.55
2023-02-19T09:40:30.655Z,1.38
2023-02-19T09:42:58.264Z,1.90
2023-02-19T09:45:26.744Z,1.70
2023-02-19T09:47:58.428Z,1.80
2023-02-19T09:50:44.735Z,1.80
2023-02-19T09:53:21.996Z,1.70
2023-02-19T09:55:49.303Z,1.55
2023-02-19T09:58:35.496Z,1.60
2023-02-19T10:01:05.805Z,1.58
2023-02-19T10:03:39.249Z,1.20
2023-02-19T10:06:29.715Z,1.42
2023-02-19T10:09:13.460Z,1.80
2023-02-19T10:11:41.906Z,2.03
2023-02-19T10:14:19.148Z,1.85
2023-02-19T10:16:49.062Z,1.38
2023-02-19T10:19:17.002Z,1.20
2023-02-19T10:21:44.471Z,1.55
2023-02-19T10:24:21.591Z,1.48
2023-02-19T10:26:50.091Z,1.40
2023-02-19T10:29:16.822Z,1.00
2023-02-19T10:31:43.664Z,1.40
2023-02-19T10:34:22.214Z,1.70
2023-02-19T10:36:52.180Z,1.58
2023-02-19T10:39:21.795Z,0.98
2023-02-19T10:41:54.462Z,1.40
2023-02-19T10:44:28.860Z,1.40
2023-02-19T10:47:00.417Z,1.30
2023-02-19T10:49:37.656Z,1.27
2023-02-19T10:52:28.246Z,1.50
2023-02-19T10:55:20.754Z,1.17
2023-02-19T10:57:47.593Z,1.50
2023-02-19T11:00:22.827Z,1.35
2023-02-19T11:02:49.740Z,1.40
2023-02-19T11:05:23.255Z,1.40
2023-02-19T11:07:53.671Z,1.50
2023-02-19T11:10:40.570Z,1.40
2023-02-19T11:13:16.233Z,1.20
2023-02-19T11:15:43.759Z,1.23
2023-02-19T11:18:13.161Z,1.40
2023-02-19T11:20:54.314Z,1.33
2023-02-19T11:23:30.527Z,1.10
2023-02-19T11:26:03.387Z,1.63
2023-02-19T11:28:40.812Z,1.30
2023-02-19T11:31:22.871Z,1.40
2023-02-19T11:34:13.423Z,1.35
2023-02-19T11:36:42.157Z,1.27
2023-02-19T11:39:17.475Z,1.20
2023-02-19T11:42:29.607Z,1.58
2023-02-19T11:45:36.862Z,1.67
2023-02-19T11:48:25.840Z,1.60
2023-02-19T11:51:39.450Z,1.33
2023-02-19T11:54:16.610Z,1.52
2023-02-19T11:56:45.062Z,1.60
2023-02-19T11:59:31.351Z,1.60
2023-02-19T12:02:34.179Z,1.80
2023-02-19T12:05:34.785Z,1.20
2023-02-19T12:08:13.272Z,1.40
2023-02-19T12:11:05.790Z,1.30
2023-02-19T12:14:11.869Z,1.33
2023-02-19T12:17:10.431Z,1.27
2023-02-19T12:20:14.703Z,1.20
2023-02-19T12:23:09.975Z,1.20
2023-02-19T12:25:55.766Z,1.23
2023-02-19T12:28:47.751Z,1.00
2023-02-19T12:31:46.511Z,1.25
2023-02-19T12:34:45.264Z,1.30
2023-02-19T12:37:52.873Z,1.10
2023-02-19T12:40:43.660Z,1.10
2023-02-19T12:43:18.664Z,1.25
2023-02-19T12:46:08.642Z,1.30
2023-02-19T12:48:58.868Z,1.45
2023-02-19T12:51:37.034Z,2.05
2023-02-19T12:54:39.211Z,1.30
2023-02-19T12:57:38.884Z,1.30
2023-02-19T13:00:35.454Z,1.08
2023-02-19T13:03:50.130Z,1.38
2023-02-19T13:06:33.191Z,1.00
2023-02-19T13:09:07.779Z,1.20
2023-02-19T13:12:01.574Z,1.15
2023-02-19T13:14:42.569Z,1.20
2023-02-19T13:17:28.529Z,1.23
2023-02-19T13:20:13.416Z,1.27
2023-02-19T13:23:14.464Z,1.50
2023-02-19T13:26:19.017Z,1.38
2023-02-19T13:29:10.250Z,1.00
2023-02-19T13:32:24.393Z,1.05
2023-02-19T13:35:23.227Z,0.90
2023-02-19T13:37:51.402Z,0.98
2023-02-19T13:40:34.989Z,1.05
2023-02-19T13:43:07.363Z,1.30
2023-02-19T13:45:45.851Z,1.00
2023-02-19T13:48:33.293Z,1.17
2023-02-19T13:51:18.810Z,1.10
2023-02-19T13:53:45.632Z,1.27
2023-02-19T13:56:31.224Z,1.20
2023-02-19T13:59:36.425Z,1.10
2023-02-19T14:02:03.058Z,1.40
2023-02-19T14:05:11.491Z,0.93
2023-02-19T14:08:35.354Z,1.15
2023-02-19T14:11:02.511Z,1.20
2023-02-19T14:13:54.532Z,1.42
2023-02-19T14:16:52.636Z,1.13
2023-02-19T14:20:00.941Z,0.90
2023-02-19T14:22:50.106Z,1.15
2023-02-19T14:25:31.782Z,1.00
2023-02-19T14:28:21.172Z,1.17
2023-02-19T14:30:57.185Z,0.80
2023-02-19T14:33:34.072Z,1.20
2023-02-19T14:36:13.344Z,1.10
2023-02-19T14:38:48.702Z,1.20
2023-02-19T14:41:17.636Z,1.00
2023-02-19T14:43:48.762Z,0.90
2023-02-19T14:46:31.138Z,1.00
2023-02-19T14:49:19.737Z,1.00
2023-02-19T14:51:53.105Z,1.00
2023-02-19T14:54:37.290Z,0.98
2023-02-19T14:59:33.395Z,1.35
2023-02-19T15:02:13.074Z,1.13
2023-02-19T15:04:40.281Z,1.00
2023-02-19T15:07:14.034Z,0.90
2023-02-19T15:09:47.322Z,0.95
2023-02-19T15:12:28.754Z,1.10
2023-02-19T15:15:01.359Z,1.05
2023-02-19T15:17:35.731Z,1.00
2023-02-19T15:20:10.927Z,1.02
2023-02-19T15:22:41.553Z,1.20
2023-02-19T15:25:16.650Z,0.73
2023-02-19T15:27:43.788Z,0.90
2023-02-19T15:30:31.290Z,0.95
2023-02-19T15:33:00.245Z,0.98
2023-02-19T15:35:29.930Z,1.00
2023-02-19T15:37:57.066Z,0.70
2023-02-19T15:40:31.489Z,1.02
2023-02-19T15:43:00.281Z,0.82
2023-02-19T15:45:37.633Z,1.10
2023-02-19T15:48:19.727Z,1.08
2023-02-19T15:53:52.163Z,0.70
2023-02-19T15:56:30.474Z,1.00
2023-02-19T15:59:13.325Z,1.10
2023-02-19T16:01:40.769Z,1.30
2023-02-19T16:04:15.695Z,1.00
2023-02-19T16:07:01.949Z,1.38
2023-02-19T16:09:40.865Z,0.93
2023-02-19T16:12:24.869Z,0.80
2023-02-19T16:14:51.847Z,0.90
2023-02-19T16:17:23.155Z,0.75
2023-02-19T16:19:56.835Z,1.27
2023-02-19T16:22:28.978Z,1.10
2023-02-19T16:25:01.909Z,0.80
2023-02-19T16:27:42.489Z,1.17
2023-02-19T16:30:17.043Z,1.02
2023-02-19T16:32:46.780Z,4.38
2023-02-19T16:35:52.164Z,1.80
2023-02-19T16:38:20.939Z,1.60
2023-02-19T16:40:50.874Z,1.30
2023-02-19T16:43:40.951Z,1.42
2023-02-19T16:46:12.852Z,1.10
2023-02-19T16:48:39.718Z,1.02
2023-02-19T16:51:08.666Z,0.88
2023-02-19T16:53:35.746Z,1.00
2023-02-19T16:56:02.664Z,1.30
2023-02-19T16:58:29.451Z,1.20
2023-02-19T17:00:56.490Z,1.55
2023-02-19T17:03:25.529Z,1.33
2023-02-19T17:05:52.792Z,1.27
2023-02-19T17:08:37.058Z,1.73
2023-02-19T17:13:33.867Z,1.23
2023-02-19T17:16:00.735Z,1.42
2023-02-19T17:18:27.993Z,1.55
2023-02-19T17:21:29.504Z,1.02
2023-02-19T17:23:59.211Z,1.10
2023-02-19T17:26:29.857Z,1.38
2023-02-19T17:28:58.505Z,1.40
2023-02-19T17:31:26.133Z,1.02
2023-02-19T17:33:53.106Z,1.70
2023-02-19T17:36:30.735Z,1.52
2023-02-19T17:39:03.172Z,1.15
2023-02-19T17:41:29.962Z,1.30
2023-02-19T17:43:56.739Z,1.30
2023-02-19T17:46:26.436Z,1.52
2023-02-19T17:48:54.430Z,1.92
2023-02-19T17:51:22.105Z,1.75
2023-02-19T17:53:48.963Z,1.70
2023-02-19T17:56:27.994Z,1.30
2023-02-19T17:58:56.927Z,1.40
2023-02-19T18:01:24.076Z,1.20
2023-02-19T18:03:51.299Z,1.40
2023-02-19T18:06:18.430Z,1.50
2023-02-19T18:08:50.941Z,2.03
2023-02-19T18:11:18.075Z,2.03
2023-02-19T18:13:45.303Z,1.70
2023-02-19T18:16:12.306Z,1.80
2023-02-19T18:18:40.356Z,1.58
2023-02-19T18:21:10.870Z,2.17
2023-02-19T18:23:38.801Z,2.28
2023-02-19T18:26:12.697Z,1.95
2023-02-19T18:28:39.924Z,2.33
2023-02-19T18:31:07.229Z,2.47
2023-02-19T18:33:35.031Z,2.97
2023-02-19T18:36:01.949Z,2.53
2023-02-19T18:38:28.756Z,2.67
2023-02-19T18:40:58.395Z,2.30
2023-02-19T18:43:25.782Z,2.08
2023-02-19T18:45:52.610Z,2.58
2023-02-19T18:48:19.383Z,1.98
2023-02-19T18:50:46.707Z,1.83
2023-02-19T18:53:14.032Z,2.13
2023-02-19T18:55:40.756Z,1.90
2023-02-19T18:58:07.465Z,2.17
2023-02-19T19:00:34.196Z,1.80
2023-02-19T19:03:00.937Z,2.40
2023-02-19T19:05:27.830Z,2.13
2023-02-19T19:07:59.271Z,2.33
2023-02-19T19:10:26.589Z,2.28
2023-02-19T19:12:54.254Z,2.10
2023-02-19T19:15:22.385Z,1.95
2023-02-19T19:17:49.797Z,2.22
2023-02-19T19:20:22.233Z,2.40
2023-02-19T19:22:51.447Z,2.58
2023-02-19T19:25:19.930Z,2.20
2023-02-19T19:27:46.776Z,2.03
2023-02-19T19:30:14.133Z,2.30
2023-02-19T19:32:40.858Z,1.80
2023-02-19T19:35:08.370Z,1.65
2023-02-19T19:37:35.244Z,1.52
2023-02-19T19:40:03.920Z,1.88
2023-02-19T19:42:30.709Z,1.90
2023-02-19T19:44:57.480Z,1.75
2023-02-19T19:47:24.240Z,2.00
2023-02-19T19:49:50.988Z,2.25
2023-02-19T19:52:17.782Z,2.35
2023-02-19T19:54:44.922Z,1.73
2023-02-19T19:57:11.952Z,2.00
2023-02-19T19:59:39.542Z,1.55
2023-02-19T20:02:07.651Z,2.42
2023-02-19T20:04:34.480Z,2.08
2023-02-19T20:07:02.231Z,2.38
2023-02-19T20:09:29.381Z,1.90
2023-02-19T20:11:56.788Z,2.00
2023-02-19T20:14:25.324Z,2.50
2023-02-19T20:16:54.458Z,2.97
2023-02-19T20:19:21.657Z,2.30
2023-02-19T20:21:53.744Z,2.30
2023-02-19T20:24:25.910Z,1.88
2023-02-19T20:27:02.661Z,2.20
2023-02-19T20:29:33.140Z,1.98
2023-02-19T20:32:02.462Z,2.22
2023-02-19T20:34:29.999Z,2.00
2023-02-19T20:36:56.898Z,2.00
2023-02-19T20:39:28.646Z,2.42
2023-02-19T20:41:56.310Z,2.25
2023-02-19T20:44:23.110Z,2.25
2023-02-19T20:46:52.477Z,2.10
2023-02-19T20:49:22.646Z,2.22
2023-02-19T20:51:57.742Z,2.40
2023-02-19T20:54:31.049Z,2.28
2023-02-19T20:57:02.120Z,2.70
2023-02-19T20:59:34.913Z,2.35
2023-02-19T21:02:27.684Z,2.40
2023-02-19T21:04:56.083Z,2.13
2023-02-19T21:07:26.800Z,2.28
2023-02-19T21:09:54.183Z,1.73
2023-02-19T21:12:22.589Z,1.80
2023-02-19T21:14:49.661Z,2.47
2023-02-19T21:17:16.631Z,1.98
2023-02-19T21:19:43.356Z,1.98
2023-02-19T21:22:10.126Z,1.77
2023-02-19T21:24:36.864Z,2.13
2023-02-19T21:27:03.964Z,2.10
2023-02-19T21:29:30.706Z,1.90
2023-02-19T21:31:58.081Z,2.20
2023-02-19T21:34:29.743Z,1.90
2023-02-19T21:36:57.438Z,1.70
2023-02-19T21:39:25.666Z,1.92
2023-02-19T21:41:52.458Z,2.15
2023-02-19T21:44:21.124Z,1.90
2023-02-19T21:46:48.259Z,1.60
2023-02-19T21:49:15.066Z,1.90
2023-02-19T21:51:43.967Z,2.00
2023-02-19T21:54:19.142Z,1.73
2023-02-19T21:56:45.923Z,2.03
2023-02-19T21:59:13.359Z,1.90
2023-02-19T22:01:40.387Z,1.70
2023-02-19T22:04:08.985Z,2.03
2023-02-19T22:06:36.038Z,2.30
2023-02-19T22:09:03.804Z,1.98
2023-02-19T22:11:30.580Z,1.45
2023-02-19T22:13:57.544Z,2.00
2023-02-19T22:16:24.397Z,2.10
2023-02-19T22:18:57.796Z,2.20
2023-02-19T22:21:32.517Z,1.80
2023-02-19T22:24:01.360Z,2.00
2023-02-19T22:26:35.520Z,1.83
2023-02-19T22:29:07.092Z,2.03
2023-02-19T22:31:35.596Z,1.98
2023-02-19T22:34:03.458Z,1.83
2023-02-19T22:36:40.235Z,1.73
2023-02-19T22:39:15.302Z,2.25
2023-02-19T22:41:43.061Z,1.90
2023-02-19T22:44:11.137Z,1.98
2023-02-19T22:46:38.179Z,1.90
2023-02-19T22:49:06.409Z,2.22
2023-02-19T22:51:35.552Z,1.75
2023-02-19T22:54:02.488Z,1.88
2023-02-19T22:56:29.350Z,1.65
2023-02-19T22:58:58.942Z,1.88
2023-02-19T23:01:26.063Z,1.83
2023-02-19T23:03:57.068Z,1.90
2023-02-19T23:06:30.536Z,2.05
2023-02-19T23:09:02.922Z,1.60
2023-02-19T23:11:33.647Z,1.92
2023-02-19T23:14:01.005Z,1.70
2023-02-19T23:16:29.172Z,1.73
2023-02-19T23:18:55.986Z,1.67
2023-02-19T23:21:23.430Z,2.20
2023-02-19T23:23:50.662Z,1.80
2023-02-19T23:26:17.554Z,1.60
2023-02-19T23:28:45.266Z,2.20
2023-02-19T23:31:13.347Z,2.45
2023-02-19T23:33:40.605Z,2.30
2023-02-19T23:36:08.591Z,2.28
2023-02-19T23:38:35.590Z,2.30
2023-02-19T23:41:03.006Z,2.10
2023-02-19T23:43:29.759Z,2.30
2023-02-19T23:45:57.004Z,2.40
2023-02-19T23:48:23.756Z,2.15
2023-02-19T23:50:50.491Z,2.47
2023-02-19T23:53:17.234Z,2.55
2023-02-19T23:55:44.016Z,2.70
2023-02-19T23:58:10.759Z,2.25
